Time;durP1;ratioP1;P1;durP2;ratioP2;P2;SDS_P1;SDS_P2;PMS_P1;PMS_P2;Temp;Humidity;BMP_temperature;BMP_pressure;BME280_temperature;BME280_humidity;BME280_pressure;Samples;Min_cycle;Max_cycle;Signal;HPM_P1;HPM_P2
2022/03/28 00:04:35;;;;;;;;;;;;;;;22.48;27.82;96508.13;10522575;28;1820;-55
2022/03/28 00:09:36;;;;;;;;;;;;;;;22.47;27.95;96491.50;10521646;28;1823;-58
2022/03/28 00:14:37;;;;;;;;;;;;;;;22.48;27.71;96489.66;10523261;28;1906;-60
2022/03/28 00:19:38;;;;;;;;;;;;;;;22.44;27.63;96491.25;10521198;28;1830;-58
2022/03/28 00:24:39;;;;;;;;;;;;;;;22.47;27.84;96483.56;10509509;28;2626;-57
2022/03/28 00:29:39;;;;;;;;;;;;;;;22.46;27.91;96478.56;10522826;28;1885;-57
2022/03/28 00:34:40;;;;;;;;;;;;;;;22.43;28.06;96479.88;10520209;28;1910;-57
2022/03/28 00:39:41;;;;;;;;;;;;;;;22.44;27.99;96480.69;10522901;28;1866;-56
2022/03/28 00:44:41;;;;;;;;;;;;;;;22.41;28.12;96471.44;10523027;28;2317;-56
2022/03/28 00:49:42;;;;;;;;;;;;;;;22.38;28.28;96479.88;10530956;28;2490;-53
2022/03/28 00:54:42;;;;;;;;;;;;;;;22.36;28.28;96468.78;10533728;28;1910;-57
2022/03/28 00:59:43;;;;;;;;;;;;;;;22.34;28.39;96459.56;10535013;28;1834;-55
2022/03/28 01:04:44;;;;;;;;;;;;;;;22.36;28.61;96458.22;10537707;28;1927;-55
2022/03/28 01:09:45;;;;;;;;;;;;;;;22.35;28.55;96456.66;10532237;28;2200;-56
2022/03/28 01:14:45;;;;;;;;;;;;;;;22.29;28.52;96452.44;10528310;28;1923;-57
2022/03/28 01:19:46;;;;;;;;;;;;;;;22.33;28.85;96453.47;10508760;28;1846;-56
2022/03/28 01:24:46;;;;;;;;;;;;;;;22.42;28.62;96451.09;10532219;28;1866;-57
2022/03/28 01:29:46;;;;;;;;;;;;;;;22.34;28.78;96446.34;10526420;28;1846;-58
2022/03/28 01:34:46;;;;;;;;;;;;;;;22.42;28.72;96446.56;10525956;28;1930;-57
2022/03/28 01:39:47;;;;;;;;;;;;;;;22.34;28.43;96444.50;10512301;28;2007;-59
2022/03/28 01:44:51;;;;;;;;;;;;;;;22.40;28.95;96440.78;10526564;28;1963;-58
2022/03/28 01:49:52;;;;;;;;;;;;;;;22.41;28.91;96431.00;10527812;28;1962;-57
2022/03/28 01:54:53;;;;;;;;;;;;;;;22.36;29.04;96431.81;10524811;28;1973;-58
2022/03/28 01:59:53;;;;;;;;;;;;;;;22.37;29.16;96422.84;10526903;28;2086;-57
2022/03/28 02:04:54;;;;;;;;;;;;;;;22.42;28.98;96424.69;10525817;28;1924;-58
2022/03/28 02:09:55;;;;;;;;;;;;;;;22.39;28.95;96426.00;10526030;28;2145;-58
2022/03/28 02:14:55;;;;;;;;;;;;;;;22.38;28.76;96427.03;10525481;28;1959;-59
2022/03/28 02:19:56;;;;;;;;;;;;;;;22.43;28.93;96416.47;10525337;28;2149;-54
2022/03/28 02:24:56;;;;;;;;;;;;;;;22.51;28.75;96407.19;10526885;28;1865;-54
2022/03/28 02:29:56;;;;;;;;;;;;;;;22.51;28.65;96417.75;10526302;28;2032;-54
2022/03/28 02:34:57;;;;;;;;;;;;;;;22.46;28.77;96413.28;10526476;28;1979;-56
2022/03/28 02:39:57;;;;;;;;;;;;;;;22.47;28.85;96417.50;10525644;28;1868;-56
2022/03/28 02:44:58;;;;;;;;;;;;;;;22.48;28.73;96423.59;10521378;28;1972;-57
2022/03/28 02:49:59;;;;;;;;;;;;;;;22.54;28.47;96412.75;10523271;28;1999;-56
2022/03/28 02:54:59;;;;;;;;;;;;;;;22.44;28.72;96410.13;10524449;28;1985;-57
2022/03/28 03:00:00;;;;;;;;;;;;;;;22.44;28.97;96407.47;10524354;28;2004;-55
2022/03/28 03:05:00;;;;;;;;;;;;;;;22.44;28.86;96404.84;10527672;28;1952;-56
2022/03/28 03:10:03;;;;;;;;;;;;;;;22.33;28.92;96405.94;10523294;28;1908;-56
2022/03/28 03:15:04;;;;;;;;;;;;;;;22.42;28.81;96401.66;10521718;28;1933;-58
2022/03/28 03:20:05;;;;;;;;;;;;;;;22.43;28.69;96405.91;10524865;22;1906;-74
2022/03/28 03:25:05;;;;;;;;;;;;;;;22.49;28.86;96402.19;10459986;28;1979;-75
2022/03/28 03:30:06;;;;;;;;;;;;;;;22.41;28.59;96410.66;10463858;28;1955;-72
2022/03/28 03:35:07;;;;;;;;;;;;;;;22.38;28.51;96405.91;10456959;28;2000;-73
2022/03/28 03:40:09;;;;;;;;;;;;;;;22.41;28.66;96405.38;10477578;28;2036;-74
2022/03/28 03:45:09;;;;;;;;;;;;;;;22.44;28.38;96404.84;10493506;28;1918;-74
2022/03/28 03:50:10;;;;;;;;;;;;;;;22.42;28.62;96408.81;10455686;28;1912;-73
2022/03/28 03:55:11;;;;;;;;;;;;;;;22.44;28.39;96401.41;10461340;28;2003;-74
2022/03/28 04:00:12;;;;;;;;;;;;;;;22.47;28.64;96391.09;10492239;28;1912;-74
2022/03/28 04:05:12;;;;;;;;;;;;;;;22.49;28.39;96394.25;10479527;28;1915;-73
2022/03/28 04:10:13;;;;;;;;;;;;;;;22.43;28.32;96395.34;10477249;28;1989;-74
2022/03/28 04:15:13;;;;;;;;;;;;;;;22.37;28.46;96391.13;10457206;28;1989;-73
2022/03/28 04:20:14;;;;;;;;;;;;;;;22.39;28.60;96404.06;10442801;28;1952;-74
2022/03/28 04:25:14;;;;;;;;;;;;;;;22.35;28.30;96401.19;10444487;28;1876;-72
2022/03/28 04:30:15;;;;;;;;;;;;;;;22.34;28.55;96391.66;10432705;28;1934;-73
2022/03/28 04:35:16;;;;;;;;;;;;;;;22.39;28.46;96394.31;10445446;28;2022;-73
2022/03/28 04:40:16;;;;;;;;;;;;;;;22.35;28.28;96382.69;10440342;28;1981;-75
2022/03/28 04:45:16;;;;;;;;;;;;;;;22.35;28.13;96392.47;10450646;28;1936;-73
2022/03/28 04:50:17;;;;;;;;;;;;;;;22.34;28.10;96386.38;10454473;28;1955;-74
2022/03/28 04:55:17;;;;;;;;;;;;;;;22.37;28.13;96395.63;10444504;28;1901;-74
2022/03/28 05:00:17;;;;;;;;;;;;;;;22.38;28.33;96384.78;10428075;28;1973;-75
2022/03/28 05:05:18;;;;;;;;;;;;;;;22.38;28.40;96384.78;10465375;28;1948;-75
2022/03/28 05:10:18;;;;;;;;;;;;;;;22.38;27.87;96379.50;10466444;28;1991;-74
2022/03/28 05:15:19;;;;;;;;;;;;;;;22.34;28.22;96386.38;10448541;28;2025;-74
2022/03/28 05:20:19;;;;;;;;;;;;;;;22.36;28.19;96376.34;10443258;28;1943;-73
2022/03/28 05:25:19;;;;;;;;;;;;;;;22.36;27.78;96376.34;10442355;28;1998;-73
2022/03/28 05:30:21;;;;;;;;;;;;;;;22.32;27.95;96372.66;10456347;28;1857;-72
2022/03/28 05:35:21;;;;;;;;;;;;;;;22.36;28.10;96375.56;10478586;28;2026;-73
2022/03/28 05:40:21;;;;;;;;;;;;;;;22.37;28.22;96370.00;10478561;28;2041;-74
2022/03/28 05:45:22;;;;;;;;;;;;;;;22.36;28.36;96373.69;10454460;28;1919;-73
2022/03/28 05:50:22;;;;;;;;;;;;;;;22.36;28.30;96375.56;10432125;28;1955;-73
2022/03/28 05:55:23;;;;;;;;;;;;;;;22.39;28.34;96373.16;10456485;28;2070;-73
2022/03/28 06:00:23;;;;;;;;;;;;;;;22.40;28.14;96374.72;10463831;28;1954;-73
2022/03/28 06:05:23;;;;;;;;;;;;;;;22.39;28.73;96370.53;10471689;28;1970;-73
2022/03/28 06:10:24;;;;;;;;;;;;;;;22.41;28.52;96386.09;10446876;28;1960;-74
2022/03/28 06:15:24;;;;;;;;;;;;;;;22.41;28.43;96381.63;10461083;28;1934;-74
2022/03/28 06:20:25;;;;;;;;;;;;;;;22.41;28.45;96386.09;10464280;28;1916;-74
2022/03/28 06:25:25;;;;;;;;;;;;;;;22.43;28.14;96379.50;10445483;28;1931;-69
2022/03/28 06:30:26;;;;;;;;;;;;;;;22.41;27.83;96386.91;10455212;28;2075;-70
2022/03/28 06:35:26;;;;;;;;;;;;;;;22.38;27.56;96387.41;10446022;28;1973;-69
2022/03/28 06:40:27;;;;;;;;;;;;;;;22.36;27.96;96388.78;10433311;28;2061;-72
2022/03/28 06:45:28;;;;;;;;;;;;;;;22.35;28.12;96392.47;10478513;28;2081;-72
2022/03/28 06:50:28;;;;;;;;;;;;;;;22.36;27.97;96381.63;10450606;28;1865;-71
2022/03/28 06:55:28;;;;;;;;;;;;;;;22.35;28.04;96387.97;10427828;28;1909;-72
2022/03/28 07:00:29;;;;;;;;;;;;;;;22.34;28.08;96381.09;10450629;28;1991;-73
2022/03/28 07:05:29;;;;;;;;;;;;;;;22.33;28.14;96374.25;10464336;28;1932;-72
2022/03/28 07:10:29;;;;;;;;;;;;;;;22.36;28.01;96384.25;10456212;28;1983;-72
2022/03/28 07:15:30;;;;;;;;;;;;;;;22.38;27.93;96374.22;10442860;28;2262;-72
2022/03/28 07:20:31;;;;;;;;;;;;;;;22.39;28.01;96372.38;10455669;28;2019;-70
2022/03/28 07:25:32;;;;;;;;;;;;;;;22.44;27.90;96375.78;10478686;28;2007;-72
2022/03/28 07:30:32;;;;;;;;;;;;;;;22.42;28.01;96367.31;10463562;28;1946;-71
2022/03/28 07:35:35;;;;;;;;;;;;;;;22.40;28.26;96364.16;10446498;28;1993;-72
2022/03/28 07:40:36;;;;;;;;;;;;;;;22.43;28.02;96368.94;10451221;28;1972;-73
2022/03/28 07:45:36;;;;;;;;;;;;;;;22.42;28.04;96354.13;10463191;28;1955;-73
2022/03/28 07:50:36;;;;;;;;;;;;;;;22.43;27.69;96357.56;10441734;28;1956;-73
2022/03/28 07:55:39;;;;;;;;;;;;;;;22.44;28.03;96359.16;10461405;28;1913;-72
2022/03/28 08:00:40;;;;;;;;;;;;;;;22.45;27.83;96355.44;10457270;28;1888;-74
2022/03/28 08:05:40;;;;;;;;;;;;;;;22.48;27.68;96360.19;10478435;28;2198;-72
2022/03/28 08:10:41;;;;;;;;;;;;;;;22.50;27.85;96355.44;10462895;28;1923;-73
2022/03/28 08:15:42;;;;;;;;;;;;;;;22.50;27.98;96350.91;10453254;28;1930;-71
2022/03/28 08:20:43;;;;;;;;;;;;;;;22.51;27.73;96349.06;10442042;28;1869;-72
2022/03/28 08:25:44;;;;;;;;;;;;;;;22.51;27.98;96349.88;10473478;28;1620;-73
2022/03/28 08:30:44;;;;;;;;;;;;;;;22.52;28.00;96348.78;10437375;28;1912;-73
2022/03/28 08:35:46;;;;;;;;;;;;;;;22.51;27.95;96344.59;10455417;28;1974;-72
2022/03/28 08:40:48;;;;;;;;;;;;;;;22.52;28.01;96340.09;10455959;28;1986;-72
2022/03/28 08:45:48;;;;;;;;;;;;;;;22.52;28.10;96340.09;10448939;28;1876;-72
2022/03/28 08:50:50;;;;;;;;;;;;;;;22.53;27.89;96345.09;10454796;28;1998;-72
2022/03/28 08:55:51;;;;;;;;;;;;;;;22.57;27.71;96343.50;10461378;28;1971;-72
2022/03/28 09:00:52;;;;;;;;;;;;;;;22.60;27.52;96337.72;10456563;28;2284;-72
2022/03/28 09:05:52;;;;;;;;;;;;;;;22.59;27.62;96330.81;10467661;28;2006;-72
2022/03/28 09:10:53;;;;;;;;;;;;;;;22.58;28.08;96331.13;10474282;28;1668;-74
2022/03/28 09:15:57;;;;;;;;;;;;;;;22.57;28.11;96322.34;10461161;28;1973;-74
2022/03/28 09:21:00;;;;;;;;;;;;;;;22.59;28.01;96319.47;10458346;28;2244;-74
2022/03/28 09:26:07;;;;;;;;;;;;;;;22.59;28.09;96314.97;10464675;28;1757;-74
2022/03/28 09:31:14;;;;;;;;;;;;;;;22.63;28.07;96304.66;10467150;28;2141;-74
2022/03/28 09:36:15;;;;;;;;;;;;;;;22.59;28.36;96304.41;10465241;28;1983;-73
2022/03/28 09:41:15;;;;;;;;;;;;;;;22.64;28.25;96301.75;10446041;28;1994;-71
2022/03/28 09:46:16;;;;;;;;;;;;;;;22.58;29.04;96297.56;10469237;28;1838;-70
2022/03/28 09:51:16;;;;;;;;;;;;;;;22.59;29.52;96287.75;10449577;28;1817;-70
2022/03/28 09:56:16;;;;;;;;;;;;;;;22.65;29.38;96276.88;10460303;28;1910;-71
2022/03/28 10:06:56;;;;;;;;;;;;;;;22.61;29.84;96264.50;10457762;28;1852;-70
2022/03/28 10:11:56;;;;;;;;;;;;;;;22.63;29.59;96262.38;10442944;28;1820;-70
2022/03/28 10:16:56;;;;;;;;;;;;;;;22.54;29.26;96253.44;10445619;28;1973;-70
2022/03/28 10:22:00;;;;;;;;;;;;;;;22.57;29.32;96248.38;10445806;28;1960;-70
2022/03/28 10:27:00;;;;;;;;;;;;;;;22.53;29.06;96239.41;10448483;28;1787;-68
2022/03/28 10:32:08;;;;;;;;;;;;;;;22.54;28.71;96232.28;10471947;28;1754;-70
2022/03/28 10:37:32;;;;;;;;;;;;;;;22.47;29.01;96215.94;10464402;28;1906;-69
2022/03/28 10:42:32;;;;;;;;;;;;;;;22.45;28.79;96218.88;10462472;28;1894;-70
2022/03/28 10:47:59;;;;;;;;;;;;;;;22.42;28.84;96203.56;10459869;28;2026;-70
2022/03/28 10:53:15;;;;;;;;;;;;;;;22.40;29.11;96195.13;10436238;28;1946;-69
2022/03/28 10:58:16;;;;;;;;;;;;;;;22.40;28.96;96184.53;10455135;28;1973;-71
2022/03/28 11:03:33;;;;;;;;;;;;;;;22.40;29.44;96179.25;10457367;28;1871;-72
2022/03/28 11:08:39;;;;;;;;;;;;;;;22.43;29.45;96168.16;10481959;28;1870;-70
2022/03/28 11:13:39;;;;;;;;;;;;;;;22.43;29.55;96157.59;10457823;28;1977;-70
2022/03/28 11:18:40;;;;;;;;;;;;;;;22.43;29.62;96147.03;10457704;28;1848;-70
2022/03/28 11:23:42;;;;;;;;;;;;;;;22.46;29.76;96129.84;10461314;28;1692;-70
2022/03/28 11:28:43;;;;;;;;;;;;;;;22.47;29.53;96121.63;10460803;28;1814;-69
2022/03/28 11:33:47;;;;;;;;;;;;;;;22.48;29.61;96112.63;10476455;28;1909;-69
2022/03/28 11:38:49;;;;;;;;;;;;;;;22.46;29.75;96106.84;10459566;28;1835;-69
2022/03/28 11:43:53;;;;;;;;;;;;;;;22.47;29.81;96097.06;10449193;28;1805;-69
2022/03/28 11:48:54;;;;;;;;;;;;;;;22.46;29.75;96090.97;10466698;28;2341;-70
2022/03/28 11:53:58;;;;;;;;;;;;;;;22.47;29.84;96079.38;10453073;28;1901;-70
2022/03/28 11:59:00;;;;;;;;;;;;;;;22.48;29.99;96074.88;10456737;28;2047;-70
2022/03/28 12:04:01;;;;;;;;;;;;;;;22.47;29.83;96068.00;10468160;28;1864;-70
2022/03/28 12:09:04;;;;;;;;;;;;;;;22.47;29.61;96055.59;10445313;28;2017;-70
2022/03/28 12:14:04;;;;;;;;;;;;;;;22.47;29.92;96049.50;10448315;28;1902;-71
2022/03/28 12:19:18;;;;;;;;;;;;;;;22.48;29.83;96043.19;10486651;28;2003;-70
2022/03/28 12:24:20;;;;;;;;;;;;;;;22.47;29.90;96034.47;10437457;28;2411;-71
2022/03/28 12:29:21;;;;;;;;;;;;;;;22.49;29.92;96023.59;10424750;28;2007;-70
2022/03/28 12:34:22;;;;;;;;;;;;;;;22.47;30.04;96018.63;10426844;28;2374;-70
2022/03/28 12:39:22;;;;;;;;;;;;;;;22.48;29.75;96006.97;10437670;28;2133;-70
2022/03/28 12:44:23;;;;;;;;;;;;;;;22.46;30.04;95989.84;10453567;28;2022;-69
2022/03/28 12:49:25;;;;;;;;;;;;;;;22.47;29.99;95976.34;10473209;28;1838;-69
2022/03/28 12:54:26;;;;;;;;;;;;;;;22.50;29.76;95964.44;10477518;28;1975;-69
2022/03/28 12:59:26;;;;;;;;;;;;;;;22.48;30.09;95964.69;10476027;28;1826;-70
2022/03/28 13:04:26;;;;;;;;;;;;;;;22.51;29.93;95950.16;10487187;28;1920;-68
2022/03/28 13:09:27;;;;;;;;;;;;;;;22.51;29.70;95945.66;10469743;28;1846;-69
2022/03/28 13:14:31;;;;;;;;;;;;;;;22.52;29.96;95939.28;10467823;28;1901;-69
2022/03/28 13:19:31;;;;;;;;;;;;;;;22.53;29.94;95934.81;10471487;28;2289;-69
2022/03/28 13:24:33;;;;;;;;;;;;;;;22.53;30.10;95925.03;10489983;28;1795;-70
2022/03/28 13:29:34;;;;;;;;;;;;;;;22.51;29.75;95911.31;10466734;28;1889;-69
2022/03/28 13:34:35;;;;;;;;;;;;;;;22.49;29.91;95908.16;10454934;28;1890;-68
2022/03/28 13:39:36;;;;;;;;;;;;;;;22.51;30.22;95905.25;10470549;28;1842;-68
2022/03/28 13:44:37;;;;;;;;;;;;;;;22.51;30.44;95894.66;10461428;28;1841;-69
2022/03/28 13:49:38;;;;;;;;;;;;;;;22.53;30.03;95877.47;10459873;28;1808;-68
2022/03/28 13:54:39;;;;;;;;;;;;;;;22.51;30.25;95884.09;10457484;28;1887;-69
2022/03/28 13:59:40;;;;;;;;;;;;;;;22.52;30.00;95875.13;10482273;28;1858;-68
2022/03/28 14:04:40;;;;;;;;;;;;;;;22.48;30.17;95869.59;10496457;28;1814;-69
2022/03/28 14:09:41;;;;;;;;;;;;;;;22.48;30.11;95859.03;10491965;28;2001;-68
2022/03/28 14:14:42;;;;;;;;;;;;;;;22.47;30.27;95840.84;10482482;28;1975;-68
2022/03/28 14:19:43;;;;;;;;;;;;;;;22.48;30.09;95845.06;10458440;28;1850;-68
2022/03/28 14:24:44;;;;;;;;;;;;;;;22.46;30.42;95845.31;10460147;28;2024;-72
2022/03/28 14:29:44;;;;;;;;;;;;;;;22.46;30.17;95829.47;10483150;28;1977;-69
2022/03/28 14:34:46;;;;;;;;;;;;;;;22.47;30.26;95828.41;10468703;28;1971;-69
2022/03/28 14:39:50;;;;;;;;;;;;;;;22.47;30.37;95825.78;10474434;28;1809;-69
2022/03/28 14:44:51;;;;;;;;;;;;;;;22.48;29.99;95810.72;10480475;28;1794;-71
2022/03/28 14:49:51;;;;;;;;;;;;;;;22.49;30.08;95807.78;10456605;28;1862;-71
2022/03/28 14:54:51;;;;;;;;;;;;;;;22.57;30.00;95803.72;10474933;28;1907;-69
2022/03/28 14:59:52;;;;;;;;;;;;;;;22.57;29.94;95796.59;10484338;28;1834;-71
2022/03/28 15:04:53;;;;;;;;;;;;;;;22.53;29.95;95792.94;10488855;28;1822;-70
2022/03/28 15:09:53;;;;;;;;;;;;;;;22.51;29.82;95792.44;10467067;28;1914;-68
2022/03/28 15:14:56;;;;;;;;;;;;;;;22.48;30.07;95790.34;10465092;28;1914;-68
2022/03/28 15:19:57;;;;;;;;;;;;;;;22.47;29.75;95777.44;10442895;28;2201;-68
2022/03/28 15:24:57;;;;;;;;;;;;;;;22.45;29.70;95777.72;10460679;28;1779;-67
2022/03/28 15:29:58;;;;;;;;;;;;;;;22.44;29.85;95767.47;10464740;28;1862;-68
2022/03/28 15:34:58;;;;;;;;;;;;;;;22.43;29.63;95761.38;10440787;28;2019;-68
2022/03/28 15:39:58;;;;;;;;;;;;;;;22.47;28.68;95757.09;10443512;28;1906;-68
2022/03/28 15:44:58;;;;;;;;;;;;;;;22.45;27.46;95753.97;10452083;28;1798;-67
2022/03/28 15:49:59;;;;;;;;;;;;;;;22.44;25.22;95749.72;10442220;28;1808;-69
2022/03/28 15:54:59;;;;;;;;;;;;;;;22.38;26.12;95745.59;10463079;28;1980;-69
2022/03/28 16:00:00;;;;;;;;;;;;;;;22.20;26.30;95738.44;10480073;28;1801;-69
2022/03/28 16:05:00;;;;;;;;;;;;;;;22.21;26.40;95731.31;10455604;28;2108;-68
2022/03/28 16:10:01;;;;;;;;;;;;;;;22.19;26.74;95721.03;10461965;28;1794;-69
2022/03/28 16:15:02;;;;;;;;;;;;;;;22.18;27.03;95722.09;10452573;28;1882;-68
2022/03/28 16:20:03;;;;;;;;;;;;;;;22.18;27.22;95716.81;10462059;28;1927;-68
2022/03/28 16:25:04;;;;;;;;;;;;;;;22.22;27.03;95717.81;10472391;28;2024;-68
2022/03/28 16:30:05;;;;;;;;;;;;;;;22.22;27.46;95711.75;10469539;28;1916;-69
2022/03/28 16:35:05;;;;;;;;;;;;;;;22.22;27.54;95709.09;10455266;28;1906;-69
2022/03/28 16:40:07;;;;;;;;;;;;;;;22.23;27.93;95708.06;10464161;28;1781;-69
2022/03/28 16:45:08;;;;;;;;;;;;;;;22.25;27.85;95700.63;10455339;28;1794;-69
2022/03/28 16:50:08;;;;;;;;;;;;;;;22.25;28.07;95700.63;10446949;28;1870;-69
2022/03/28 16:55:09;;;;;;;;;;;;;;;22.26;28.17;95702.97;10446323;28;1914;-68
2022/03/28 17:00:10;;;;;;;;;;;;;;;22.27;28.38;95709.06;10457943;28;1899;-68
2022/03/28 17:05:10;;;;;;;;;;;;;;;22.26;28.39;95697.69;10454863;28;1854;-69
2022/03/28 17:10:10;;;;;;;;;;;;;;;22.26;28.42;95697.69;10454804;28;1823;-67
2022/03/28 17:15:13;;;;;;;;;;;;;;;22.32;29.00;95688.63;10457888;28;1882;-69
2022/03/28 17:20:13;;;;;;;;;;;;;;;22.35;29.86;95688.06;10471212;28;1874;-69
2022/03/28 17:25:14;;;;;;;;;;;;;;;22.36;29.88;95680.94;10456637;28;1675;-69
2022/03/28 17:30:18;;;;;;;;;;;;;;;22.36;29.78;95689.63;10438817;28;1879;-70
2022/03/28 17:35:19;;;;;;;;;;;;;;;22.37;29.50;95688.56;10449065;28;1962;-70
2022/03/28 17:40:22;;;;;;;;;;;;;;;22.37;29.69;95682.50;10450879;28;1797;-70
2022/03/28 17:45:22;;;;;;;;;;;;;;;22.44;30.96;95686.34;10483164;28;1904;-68
2022/03/28 17:50:23;;;;;;;;;;;;;;;22.47;32.65;95682.34;10467270;28;1877;-68
2022/03/28 17:55:23;;;;;;;;;;;;;;;22.53;33.59;95694.41;10481299;28;1969;-70
2022/03/28 18:00:24;;;;;;;;;;;;;;;22.51;33.04;95688.63;10444348;28;1863;-70
2022/03/28 18:05:24;;;;;;;;;;;;;;;22.48;33.08;95692.63;10452796;28;1811;-69
2022/03/28 18:10:27;;;;;;;;;;;;;;;22.57;33.39;95690.91;10454615;28;1868;-70
2022/03/28 18:15:28;;;;;;;;;;;;;;;22.60;34.04;95692.22;10449080;28;1942;-69
2022/03/28 18:20:29;;;;;;;;;;;;;;;22.61;33.46;95697.22;10465102;28;1936;-70
2022/03/28 18:25:30;;;;;;;;;;;;;;;22.62;33.44;95696.16;10460788;28;1753;-71
2022/03/28 18:30:31;;;;;;;;;;;;;;;22.60;33.50;95695.66;10475544;28;1793;-71
2022/03/28 18:35:31;;;;;;;;;;;;;;;22.58;33.36;95695.16;10478648;28;1979;-77
2022/03/28 18:40:31;;;;;;;;;;;;;;;22.69;33.20;95697.66;10451076;28;1763;-73
2022/03/28 18:45:32;;;;;;;;;;;;;;;22.55;33.40;95694.91;10467163;28;1723;-73
2022/03/28 18:50:32;;;;;;;;;;;;;;;22.54;33.34;95694.16;10472394;28;1896;-72
2022/03/28 18:55:33;;;;;;;;;;;;;;;22.56;33.81;95693.84;10462482;28;1977;-72
2022/03/28 19:00:33;;;;;;;;;;;;;;;22.54;33.77;95696.00;10480136;28;2003;-70
2022/03/28 19:05:34;;;;;;;;;;;;;;;22.46;33.60;95681.56;10448292;28;2069;-70
2022/03/28 19:10:35;;;;;;;;;;;;;;;22.40;33.44;95682.69;10465056;28;1839;-71
2022/03/28 19:15:36;;;;;;;;;;;;;;;22.36;32.97;95680.94;10447223;28;1969;-69
2022/03/28 19:20:36;;;;;;;;;;;;;;;22.33;32.89;95684.94;10446580;28;1959;-72
2022/03/28 19:25:37;;;;;;;;;;;;;;;22.34;32.70;95688.38;10445238;28;1851;-71
2022/03/28 19:30:37;;;;;;;;;;;;;;;22.30;32.51;95682.06;10468635;28;2252;-69
2022/03/28 19:35:38;;;;;;;;;;;;;;;22.25;32.64;95671.59;10444702;28;1914;-70
2022/03/28 19:40:39;;;;;;;;;;;;;;;22.28;32.27;95668.34;10467952;28;1832;-69
2022/03/28 19:45:39;;;;;;;;;;;;;;;22.21;32.45;95658.19;10455584;28;1839;-69
2022/03/28 19:50:39;;;;;;;;;;;;;;;22.17;32.65;95659.81;10486300;28;1835;-69
2022/03/28 19:55:40;;;;;;;;;;;;;;;22.15;32.45;95653.25;10464257;28;2026;-69
2022/03/28 20:00:40;;;;;;;;;;;;;;;22.13;32.33;95663.31;10488504;28;1877;-69
2022/03/28 20:05:40;;;;;;;;;;;;;;;22.12;32.26;95665.16;10473907;28;1831;-72
2022/03/28 20:10:43;;;;;;;;;;;;;;;22.18;32.10;95665.88;10487946;28;2345;-70
2022/03/28 20:15:43;;;;;;;;;;;;;;;22.18;31.46;95658.75;10485507;28;1909;-70
2022/03/28 20:20:44;;;;;;;;;;;;;;;22.13;31.84;95650.91;10476440;28;1861;-71
2022/03/28 20:25:45;;;;;;;;;;;;;;;22.08;31.68;95644.88;10472983;28;1579;-72
2022/03/28 20:30:46;;;;;;;;;;;;;;;22.09;31.30;95641.94;10473089;28;1798;-71
2022/03/28 20:35:46;;;;;;;;;;;;;;;22.04;31.59;95642.03;10498438;28;1965;-70
2022/03/28 20:40:46;;;;;;;;;;;;;;;22.02;31.61;95628.34;10471250;28;1733;-70
2022/03/28 20:45:48;;;;;;;;;;;;;;;22.04;31.42;95620.13;10487614;28;1859;-70
2022/03/28 20:50:49;;;;;;;;;;;;;;;22.03;31.28;95616.69;10453825;28;1811;-71
2022/03/28 20:55:50;;;;;;;;;;;;;;;22.03;31.18;95616.69;10441480;28;1972;-69
2022/03/28 21:00:50;;;;;;;;;;;;;;;22.03;30.91;95608.78;10472916;28;1930;-71
2022/03/28 21:05:50;;;;;;;;;;;;;;;22.04;30.96;95605.09;10497603;28;1815;-70
2022/03/28 21:10:51;;;;;;;;;;;;;;;22.05;30.86;95608.53;10498209;28;1811;-70
2022/03/28 21:15:52;;;;;;;;;;;;;;;22.07;30.47;95598.47;10483268;28;1909;-70
2022/03/28 21:20:53;;;;;;;;;;;;;;;22.08;30.47;95590.25;10481501;28;1847;-70
2022/03/28 21:25:53;;;;;;;;;;;;;;;22.11;30.36;95594.97;10482511;28;1822;-69
2022/03/28 21:30:57;;;;;;;;;;;;;;;22.10;30.19;95593.38;10480401;28;1788;-70
2022/03/28 21:35:57;;;;;;;;;;;;;;;22.10;30.07;95596.03;10479833;28;1914;-71
2022/03/28 21:40:58;;;;;;;;;;;;;;;22.15;29.89;95590.69;10465086;28;1922;-71
2022/03/28 21:45:58;;;;;;;;;;;;;;;22.13;29.91;95598.09;10485357;28;1846;-71
2022/03/28 21:50:58;;;;;;;;;;;;;;;22.17;29.66;95596.47;10466877;28;1765;-69
2022/03/28 21:55:59;;;;;;;;;;;;;;;22.18;29.71;95605.94;10501504;28;1921;-70
2022/03/28 22:01:00;;;;;;;;;;;;;;;22.19;29.30;95596.16;10494364;28;1863;-70
2022/03/28 22:06:02;;;;;;;;;;;;;;;22.18;29.33;95595.38;10495618;28;2289;-70
2022/03/28 22:11:03;;;;;;;;;;;;;;;22.14;29.17;95599.66;10478963;28;1852;-71
2022/03/28 22:16:03;;;;;;;;;;;;;;;22.15;29.28;95603.09;10463605;28;1957;-72
2022/03/28 22:21:04;;;;;;;;;;;;;;;22.13;29.22;95597.31;10459139;28;2442;-71
2022/03/28 22:26:05;;;;;;;;;;;;;;;22.10;29.24;95590.75;10463156;28;2506;-71
2022/03/28 22:31:06;;;;;;;;;;;;;;;22.11;29.06;95589.69;10461625;28;1839;-72
2022/03/28 22:36:07;;;;;;;;;;;;;;;22.12;28.77;95578.03;10481696;28;1977;-71
2022/03/28 22:41:07;;;;;;;;;;;;;;;22.14;28.93;95578.53;10477298;28;1814;-72
2022/03/28 22:46:08;;;;;;;;;;;;;;;22.11;28.99;95578.34;10476666;28;1847;-69
2022/03/28 22:51:08;;;;;;;;;;;;;;;22.11;28.71;95560.66;10473140;28;1834;-69
2022/03/28 22:56:09;;;;;;;;;;;;;;;22.15;28.59;95563.50;10476887;28;1906;-70
2022/03/28 23:01:10;;;;;;;;;;;;;;;22.19;28.65;95554.72;10475771;28;2305;-70
2022/03/28 23:06:10;;;;;;;;;;;;;;;22.13;28.50;95552.44;10463414;28;1937;-70
2022/03/28 23:11:10;;;;;;;;;;;;;;;22.18;28.35;95547.84;10489661;28;1966;-70
2022/03/28 23:16:12;;;;;;;;;;;;;;;22.19;28.51;95541.50;10482161;28;1902;-70
2022/03/28 23:21:13;;;;;;;;;;;;;;;22.18;28.34;95539.13;10447028;28;1867;-69
2022/03/28 23:26:14;;;;;;;;;;;;;;;22.18;28.40;95526.72;10476604;28;3662;-69
2022/03/28 23:31:16;;;;;;;;;;;;;;;22.17;28.38;95524.38;10445329;28;1942;-71
2022/03/28 23:36:16;;;;;;;;;;;;;;;22.19;28.26;95520.38;10479078;28;1906;-72
2022/03/28 23:41:16;;;;;;;;;;;;;;;22.13;28.24;95510.19;10457262;28;1847;-71
2022/03/28 23:46:17;;;;;;;;;;;;;;;22.16;27.79;95506.97;10463491;28;1902;-70
2022/03/28 23:51:18;;;;;;;;;;;;;;;22.11;28.09;95502.56;10453764;28;1916;-71
2022/03/28 23:56:21;;;;;;;;;;;;;;;22.17;27.78;95501.41;10476918;28;1910;-70
